createdAt,value
2019-05-28T00:01:22.289Z,58.38
2019-05-28T00:03:50.539Z,58.37
2019-05-28T00:06:18.619Z,58.47
2019-05-28T00:08:46.599Z,58.42
2019-05-28T00:11:14.825Z,58.37
2019-05-28T00:13:42.876Z,58.43
2019-05-28T00:16:10.960Z,58.43
2019-05-28T00:18:38.996Z,58.47
2019-05-28T00:21:07.047Z,58.44
2019-05-28T00:23:35.064Z,58.50
2019-05-28T00:26:03.111Z,58.50
2019-05-28T00:28:31.216Z,58.57
2019-05-28T00:30:59.379Z,58.63
2019-05-28T00:33:27.399Z,58.66
2019-05-28T00:35:55.570Z,58.53
2019-05-28T00:38:23.657Z,58.52
2019-05-28T00:40:51.640Z,58.49
2019-05-28T00:43:19.669Z,58.60
2019-05-28T00:45:47.757Z,58.54
2019-05-28T00:48:15.813Z,58.54
2019-05-28T00:50:43.857Z,58.56
2019-05-28T00:53:11.856Z,58.75
2019-05-28T00:55:39.943Z,58.56
2019-05-28T00:58:07.973Z,58.62
2019-05-28T01:00:37.177Z,58.57
2019-05-28T01:03:05.451Z,58.62
2019-05-28T01:05:33.617Z,58.70
2019-05-28T01:08:01.662Z,58.60
2019-05-28T01:10:29.755Z,58.63
2019-05-28T01:12:57.756Z,58.61
2019-05-28T01:15:25.800Z,58.63
2019-05-28T01:17:53.935Z,58.70
2019-05-28T01:20:21.976Z,58.66
2019-05-28T01:22:50.011Z,58.75
2019-05-28T01:25:18.053Z,58.74
2019-05-28T01:27:46.030Z,58.75
2019-05-28T01:30:14.057Z,58.74
2019-05-28T01:32:42.062Z,58.72
2019-05-28T01:35:10.340Z,58.79
2019-05-28T01:37:38.396Z,58.72
2019-05-28T01:40:07.143Z,58.81
2019-05-28T01:42:35.192Z,58.82
2019-05-28T01:45:03.275Z,58.87
2019-05-28T01:47:31.307Z,58.85
2019-05-28T01:49:59.344Z,58.90
2019-05-28T01:52:27.372Z,58.90
2019-05-28T01:54:55.622Z,58.82
2019-05-28T01:57:23.759Z,58.88
2019-05-28T01:59:51.789Z,58.86
2019-05-28T02:02:19.828Z,58.88
2019-05-28T02:04:47.929Z,58.84
2019-05-28T02:07:15.973Z,58.80
2019-05-28T02:09:44.036Z,58.79
2019-05-28T02:12:12.045Z,58.85
2019-05-28T02:14:40.124Z,58.79
2019-05-28T02:17:08.251Z,58.83
2019-05-28T02:19:36.269Z,58.85
2019-05-28T02:22:04.405Z,58.85
2019-05-28T02:24:32.466Z,58.76
2019-05-28T02:27:00.593Z,58.76
2019-05-28T02:29:28.777Z,58.79
2019-05-28T02:31:56.779Z,58.79
2019-05-28T02:34:24.872Z,58.82
2019-05-28T02:36:52.990Z,58.88
2019-05-28T02:39:20.994Z,58.82
2019-05-28T02:41:49.032Z,58.79
2019-05-28T02:44:17.083Z,58.78
2019-05-28T02:46:45.113Z,58.85
2019-05-28T02:49:16.174Z,58.81
2019-05-28T02:51:44.170Z,58.86
2019-05-28T02:54:12.198Z,58.84
2019-05-28T02:56:40.284Z,58.82
2019-05-28T02:59:08.268Z,58.84
2019-05-28T03:01:44.185Z,58.81
2019-05-28T03:04:06.135Z,58.87
2019-05-28T03:06:34.193Z,58.88
2019-05-28T03:09:02.189Z,58.91
2019-05-28T03:11:30.247Z,58.90
2019-05-28T03:13:58.235Z,58.86
2019-05-28T03:16:26.523Z,58.85
2019-05-28T03:18:54.685Z,58.89
2019-05-28T03:21:22.798Z,58.88
2019-05-28T03:23:50.865Z,58.89
2019-05-28T03:26:18.917Z,58.81
2019-05-28T03:28:46.934Z,58.81
2019-05-28T03:31:14.961Z,58.85
2019-05-28T03:33:43.052Z,58.80
2019-05-28T03:36:11.024Z,58.84
2019-05-28T03:38:39.091Z,58.84
2019-05-28T03:41:07.185Z,58.79
2019-05-28T03:43:35.167Z,58.77
2019-05-28T03:46:03.298Z,58.77
2019-05-28T03:48:31.336Z,58.78
2019-05-28T03:50:59.347Z,58.82
2019-05-28T03:53:27.402Z,58.84
2019-05-28T03:55:55.467Z,58.85
2019-05-28T03:58:23.502Z,58.90
2019-05-28T04:00:51.580Z,58.93
2019-05-28T04:03:19.688Z,58.99
2019-05-28T04:05:47.888Z,59.07
2019-05-28T04:08:15.997Z,59.02
2019-05-28T04:10:44.115Z,59.04
2019-05-28T04:13:12.371Z,59.05
2019-05-28T04:15:40.549Z,59.17
2019-05-28T04:18:08.651Z,59.20
2019-05-28T04:20:37.130Z,59.21
2019-05-28T04:23:05.117Z,59.41
2019-05-28T04:25:33.237Z,59.53
2019-05-28T04:28:01.282Z,59.40
2019-05-28T04:30:29.282Z,59.51
2019-05-28T04:32:57.294Z,59.49
2019-05-28T04:35:25.322Z,59.53
2019-05-28T04:37:53.347Z,59.56
2019-05-28T04:40:21.567Z,59.59
2019-05-28T04:42:49.673Z,59.65
2019-05-28T04:45:17.746Z,59.70
2019-05-28T04:47:45.788Z,59.61
2019-05-28T04:50:13.834Z,59.61
2019-05-28T04:52:41.898Z,59.51
2019-05-28T04:55:10.450Z,59.50
2019-05-28T04:57:38.504Z,59.46
2019-05-28T05:00:06.547Z,59.50
2019-05-28T05:02:34.599Z,59.54
2019-05-28T05:05:02.746Z,59.50
2019-05-28T05:07:30.835Z,59.48
2019-05-28T05:09:59.344Z,59.37
2019-05-28T05:12:27.349Z,59.36
2019-05-28T05:14:55.520Z,59.32
2019-05-28T05:17:23.616Z,59.33
2019-05-28T05:19:51.669Z,59.30
2019-05-28T05:22:19.698Z,59.32
2019-05-28T05:24:47.773Z,59.29
2019-05-28T05:27:15.846Z,59.28
2019-05-28T05:29:43.935Z,59.26
2019-05-28T05:32:11.945Z,59.28
2019-05-28T05:34:40.033Z,59.34
2019-05-28T05:37:08.205Z,59.19
2019-05-28T05:39:36.188Z,59.05
2019-05-28T05:42:04.201Z,59.01
2019-05-28T05:44:32.369Z,59.24
2019-05-28T05:47:00.460Z,59.27
2019-05-28T05:49:28.467Z,59.17
2019-05-28T05:51:56.516Z,59.11
2019-05-28T05:54:24.508Z,59.03
2019-05-28T05:56:52.534Z,59.01
2019-05-28T05:59:20.579Z,58.98
2019-05-28T06:01:48.895Z,58.98
2019-05-28T06:04:16.904Z,58.91
2019-05-28T06:06:45.004Z,58.89
2019-05-28T06:09:13.023Z,58.88
2019-05-28T06:11:42.536Z,58.76
2019-05-28T06:14:10.586Z,58.78
2019-05-28T06:16:38.636Z,58.73
2019-05-28T06:19:06.684Z,59.07
2019-05-28T06:21:34.836Z,59.20
2019-05-28T06:24:02.886Z,59.07
2019-05-28T06:26:30.926Z,59.11
2019-05-28T06:28:58.980Z,59.19
2019-05-28T06:31:27.369Z,59.21
2019-05-28T06:33:57.394Z,59.36
2019-05-28T06:36:25.268Z,59.25
2019-05-28T06:38:53.607Z,59.30
2019-05-28T06:41:21.842Z,59.36
2019-05-28T06:43:49.860Z,59.45
2019-05-28T06:46:18.023Z,59.38
2019-05-28T06:48:46.072Z,59.51
2019-05-28T06:51:14.102Z,59.49
2019-05-28T06:53:42.282Z,59.49
2019-05-28T06:56:10.342Z,59.59
2019-05-28T06:58:40.250Z,59.56
2019-05-28T07:01:08.439Z,59.51
2019-05-28T07:03:37.343Z,59.49
2019-05-28T07:06:07.486Z,59.56
2019-05-28T07:08:35.176Z,59.58
2019-05-28T07:11:03.266Z,59.62
2019-05-28T07:13:31.377Z,59.65
2019-05-28T07:15:59.482Z,59.75
2019-05-28T07:18:27.574Z,59.72
2019-05-28T07:20:55.698Z,59.63
2019-05-28T07:23:23.743Z,59.63
2019-05-28T07:25:51.772Z,59.69
2019-05-28T07:28:19.809Z,59.80
2019-05-28T07:30:47.829Z,59.71
2019-05-28T07:33:15.883Z,59.77
2019-05-28T07:35:46.066Z,59.85
2019-05-28T07:38:14.258Z,59.90
2019-05-28T07:40:42.653Z,59.94
2019-05-28T07:43:10.723Z,59.95
2019-05-28T07:45:41.307Z,59.91
2019-05-28T07:48:09.392Z,59.96
2019-05-28T07:50:37.465Z,60.04
2019-05-28T07:53:05.531Z,59.98
2019-05-28T07:55:33.735Z,59.96
2019-05-28T07:58:02.032Z,59.95
2019-05-28T08:00:30.113Z,60.05
2019-05-28T08:02:58.236Z,60.13
2019-05-28T08:05:26.246Z,60.18
2019-05-28T08:07:54.377Z,60.28
2019-05-28T08:10:22.406Z,60.25
2019-05-28T08:12:50.622Z,60.27
2019-05-28T08:15:18.937Z,60.24
2019-05-28T08:17:46.980Z,60.27
2019-05-28T08:20:18.336Z,60.11
2019-05-28T08:22:44.921Z,60.17
2019-05-28T08:25:27.304Z,60.25
2019-05-28T08:27:42.887Z,60.14
2019-05-28T08:30:10.998Z,60.16
2019-05-28T08:32:39.266Z,60.04
2019-05-28T08:35:07.357Z,60.01
2019-05-28T08:37:35.607Z,59.89
2019-05-28T08:40:03.644Z,59.75
2019-05-28T08:42:31.814Z,59.81
2019-05-28T08:44:59.979Z,59.94
2019-05-28T08:47:28.085Z,59.94
2019-05-28T08:49:56.188Z,60.03
2019-05-28T08:52:24.298Z,60.04
2019-05-28T08:54:52.819Z,59.92
2019-05-28T08:57:21.317Z,59.92
2019-05-28T08:59:49.436Z,59.92
2019-05-28T09:02:28.158Z,59.91
2019-05-28T09:04:47.387Z,59.87
2019-05-28T09:07:15.504Z,59.81
2019-05-28T09:09:43.546Z,59.80
2019-05-28T09:12:11.589Z,59.60
2019-05-28T09:14:55.022Z,59.52
2019-05-28T09:17:09.456Z,59.40
2019-05-28T09:19:37.495Z,59.34
2019-05-28T09:22:05.567Z,59.31
2019-05-28T09:24:33.581Z,59.29
2019-05-28T09:27:01.940Z,59.17
2019-05-28T09:29:30.028Z,59.10
2019-05-28T09:31:58.151Z,59.02
2019-05-28T09:34:26.188Z,59.07
2019-05-28T09:36:54.217Z,59.19
2019-05-28T09:39:22.377Z,59.25
2019-05-28T09:41:50.439Z,59.28
2019-05-28T09:44:18.550Z,59.36
2019-05-28T09:46:46.709Z,59.43
2019-05-28T09:49:14.774Z,59.59
2019-05-28T09:51:42.803Z,59.76
2019-05-28T09:54:10.852Z,59.85
2019-05-28T09:56:38.953Z,59.92
2019-05-28T09:59:07.248Z,60.01
2019-05-28T10:01:37.277Z,59.83
2019-05-28T10:04:05.302Z,59.78
2019-05-28T10:06:37.084Z,59.76
2019-05-28T10:09:03.430Z,59.71
2019-05-28T10:11:31.438Z,59.75
2019-05-28T10:14:01.050Z,59.85
2019-05-28T10:16:29.206Z,59.75
2019-05-28T10:18:57.248Z,59.65
2019-05-28T10:21:25.407Z,59.59
2019-05-28T10:23:53.593Z,59.59
2019-05-28T10:26:21.829Z,59.55
2019-05-28T10:28:50.643Z,59.62
2019-05-28T10:31:19.003Z,59.45
2019-05-28T10:33:47.126Z,59.57
2019-05-28T10:36:32.169Z,59.55
2019-05-28T10:38:45.027Z,59.49
2019-05-28T10:41:13.008Z,59.62
2019-05-28T10:43:41.157Z,59.69
2019-05-28T10:46:09.349Z,59.56
2019-05-28T10:48:37.390Z,59.52
2019-05-28T10:51:24.220Z,59.47
2019-05-28T10:53:52.208Z,59.42
2019-05-28T10:56:20.235Z,59.42
2019-05-28T10:58:48.445Z,59.39
2019-05-28T11:01:16.686Z,59.42
2019-05-28T11:03:47.065Z,59.43
2019-05-28T11:06:14.591Z,59.34
2019-05-28T11:08:42.796Z,59.46
2019-05-28T11:11:13.921Z,59.53
2019-05-28T11:13:52.476Z,59.35
2019-05-28T11:16:12.808Z,59.78
2019-05-28T11:18:40.896Z,59.98
2019-05-28T11:21:10.079Z,59.64
2019-05-28T11:23:38.463Z,62.04
2019-05-28T11:26:06.991Z,63.10
2019-05-28T11:28:35.297Z,63.92
2019-05-28T11:31:03.542Z,62.64
2019-05-28T11:33:31.663Z,63.84
2019-05-28T11:35:59.823Z,64.15
2019-05-28T11:38:27.993Z,64.19
2019-05-28T11:40:56.047Z,64.45
2019-05-28T11:43:24.202Z,64.57
2019-05-28T11:45:52.322Z,64.68
2019-05-28T11:48:20.436Z,65.41
2019-05-28T11:50:49.238Z,64.71
2019-05-28T11:53:18.879Z,64.25
2019-05-28T11:55:48.357Z,64.48
2019-05-28T11:58:17.103Z,64.35
2019-05-28T12:00:45.385Z,64.01
2019-05-28T12:03:13.507Z,63.49
2019-05-28T12:05:41.558Z,63.65
2019-05-28T12:08:09.728Z,63.58
2019-05-28T12:10:37.741Z,64.09
2019-05-28T12:13:05.779Z,64.36
2019-05-28T12:15:33.903Z,64.26
2019-05-28T12:18:02.160Z,64.68
2019-05-28T12:20:30.437Z,64.96
2019-05-28T12:23:10.558Z,65.32
2019-05-28T12:25:28.291Z,64.61
2019-05-28T12:27:56.384Z,65.01
2019-05-28T12:30:25.330Z,65.35
2019-05-28T12:32:53.549Z,65.51
2019-05-28T12:35:29.260Z,65.53
2019-05-28T12:37:51.555Z,65.41
2019-05-28T12:40:19.661Z,65.13
2019-05-28T12:42:47.769Z,65.17
2019-05-28T12:45:17.181Z,65.23
2019-05-28T12:47:55.631Z,65.27
2019-05-28T12:50:19.984Z,64.64
2019-05-28T12:52:47.417Z,64.90
2019-05-28T12:55:14.786Z,64.96
2019-05-28T12:57:42.875Z,64.50
2019-05-28T13:00:11.023Z,63.57
2019-05-28T13:02:39.015Z,62.76
2019-05-28T13:05:07.170Z,63.04
2019-05-28T13:07:35.239Z,63.68
2019-05-28T13:10:03.264Z,64.28
2019-05-28T13:12:31.379Z,64.19
2019-05-28T13:14:59.455Z,63.84
2019-05-28T13:17:27.833Z,62.95
2019-05-28T13:19:56.059Z,63.19
2019-05-28T13:22:24.176Z,63.35
2019-05-28T13:24:52.245Z,63.57
2019-05-28T13:27:20.340Z,63.67
2019-05-28T13:29:48.604Z,64.15
2019-05-28T13:32:16.722Z,63.38
2019-05-28T13:34:44.890Z,63.77
2019-05-28T13:37:13.059Z,63.32
2019-05-28T13:39:41.401Z,63.20
2019-05-28T13:42:09.500Z,63.34
2019-05-28T13:44:37.572Z,63.89
2019-05-28T13:47:05.825Z,63.98
2019-05-28T13:49:33.878Z,63.53
2019-05-28T13:52:11.421Z,63.14
2019-05-28T13:54:32.054Z,63.58
2019-05-28T13:57:02.199Z,62.93
2019-05-28T13:59:30.212Z,62.23
2019-05-28T14:01:58.295Z,61.46
2019-05-28T14:04:26.537Z,61.09
2019-05-28T14:06:56.316Z,61.20
2019-05-28T14:09:24.395Z,61.87
2019-05-28T14:11:52.684Z,62.41
2019-05-28T14:14:21.045Z,62.49
2019-05-28T14:16:51.084Z,62.79
2019-05-28T14:19:21.690Z,61.47
2019-05-28T14:21:49.877Z,61.92
2019-05-28T14:24:18.364Z,61.29
2019-05-28T14:26:47.361Z,60.54
2019-05-28T14:29:15.741Z,61.72
2019-05-28T14:31:43.790Z,62.07
2019-05-28T14:34:11.893Z,61.37
2019-05-28T14:36:40.143Z,61.46
2019-05-28T14:39:08.443Z,61.08
2019-05-28T14:42:01.061Z,61.13
2019-05-28T14:44:29.102Z,61.58
2019-05-28T14:46:57.242Z,61.81
2019-05-28T14:49:25.488Z,61.85
2019-05-28T14:51:53.594Z,62.03
2019-05-28T14:54:23.082Z,61.86
2019-05-28T14:56:51.346Z,61.68
2019-05-28T14:59:19.413Z,61.98
2019-05-28T15:01:47.447Z,61.98
2019-05-28T15:04:15.531Z,61.94
2019-05-28T15:06:43.649Z,62.07
2019-05-28T15:09:20.669Z,62.18
2019-05-28T15:11:41.744Z,62.20
2019-05-28T15:14:09.833Z,62.33
2019-05-28T15:16:39.745Z,62.41
2019-05-28T15:19:07.769Z,61.99
2019-05-28T15:21:35.848Z,61.79
2019-05-28T15:24:04.698Z,61.41
2019-05-28T15:26:32.734Z,61.17
2019-05-28T15:29:00.855Z,61.29
2019-05-28T15:31:29.086Z,60.91
2019-05-28T15:33:57.145Z,60.37
2019-05-28T15:36:25.180Z,60.10
2019-05-28T15:38:53.283Z,60.30
2019-05-28T15:41:21.364Z,60.40
2019-05-28T15:43:49.372Z,59.90
2019-05-28T15:46:17.456Z,59.72
2019-05-28T15:48:45.479Z,58.72
2019-05-28T15:51:13.526Z,58.27
2019-05-28T15:53:41.566Z,58.05
2019-05-28T15:56:09.595Z,58.17
2019-05-28T15:58:37.641Z,57.98
2019-05-28T16:01:06.133Z,57.82
2019-05-28T16:03:34.170Z,58.34
2019-05-28T16:06:02.348Z,58.79
2019-05-28T16:08:44.158Z,58.79
2019-05-28T16:11:13.217Z,58.64
2019-05-28T16:13:41.495Z,58.76
2019-05-28T16:16:09.761Z,58.10
2019-05-28T16:18:37.858Z,58.60
2019-05-28T16:21:05.919Z,58.98
2019-05-28T16:23:33.969Z,59.14
2019-05-28T16:26:02.065Z,59.21
2019-05-28T16:28:30.086Z,59.27
2019-05-28T16:31:11.961Z,59.41
2019-05-28T16:33:27.958Z,59.46
2019-05-28T16:35:56.035Z,59.38
2019-05-28T16:38:24.119Z,59.52
2019-05-28T16:40:52.143Z,59.39
2019-05-28T16:43:20.189Z,59.34
2019-05-28T16:45:48.233Z,59.39
2019-05-28T16:48:16.560Z,59.21
2019-05-28T16:50:44.605Z,59.17
2019-05-28T16:53:12.681Z,58.80
2019-05-28T16:55:42.135Z,58.85
2019-05-28T16:58:10.265Z,58.79
2019-05-28T17:00:38.372Z,58.41
2019-05-28T17:03:06.448Z,58.41
2019-05-28T17:05:34.574Z,58.25
2019-05-28T17:08:02.769Z,57.85
2019-05-28T17:10:33.530Z,58.27
2019-05-28T17:13:00.590Z,58.22
2019-05-28T17:15:28.837Z,58.24
2019-05-28T17:17:57.091Z,58.43
2019-05-28T17:20:25.127Z,58.26
2019-05-28T17:22:55.302Z,58.28
2019-05-28T17:25:23.241Z,58.16
2019-05-28T17:27:51.277Z,58.29
2019-05-28T17:30:23.923Z,58.32
2019-05-28T17:32:49.115Z,58.32
2019-05-28T17:35:17.142Z,58.35
2019-05-28T17:37:45.228Z,58.33
2019-05-28T17:40:13.254Z,57.96
2019-05-28T17:42:41.280Z,57.65
2019-05-28T17:45:09.449Z,57.35
2019-05-28T17:47:43.313Z,57.13
2019-05-28T17:50:07.533Z,57.26
2019-05-28T17:52:35.793Z,57.26
2019-05-28T17:55:03.989Z,57.48
2019-05-28T17:57:32.090Z,57.35
2019-05-28T18:00:01.009Z,57.53
2019-05-28T18:02:29.152Z,57.52
2019-05-28T18:04:57.834Z,57.49
2019-05-28T18:07:25.905Z,57.31
2019-05-28T18:09:54.024Z,57.14
2019-05-28T18:12:22.097Z,57.10
2019-05-28T18:14:50.351Z,57.08
2019-05-28T18:17:18.395Z,57.00
2019-05-28T18:19:46.420Z,56.95
2019-05-28T18:22:14.487Z,56.95
2019-05-28T18:24:42.560Z,56.85
2019-05-28T18:27:10.891Z,56.84
2019-05-28T18:29:38.939Z,56.98
2019-05-28T18:32:07.183Z,56.81
2019-05-28T18:34:35.238Z,56.73
2019-05-28T18:37:03.283Z,56.71
2019-05-28T18:39:31.326Z,56.69
2019-05-28T18:41:59.353Z,56.55
2019-05-28T18:44:27.431Z,56.45
2019-05-28T18:46:55.542Z,56.32
2019-05-28T18:49:23.634Z,56.34
2019-05-28T18:51:51.723Z,56.25
2019-05-28T18:54:19.941Z,56.38
2019-05-28T18:56:48.051Z,56.29
2019-05-28T18:59:16.176Z,55.48
2019-05-28T19:01:44.309Z,55.38
2019-05-28T19:04:12.400Z,55.09
2019-05-28T19:06:40.590Z,55.09
2019-05-28T19:09:11.525Z,54.96
2019-05-28T19:11:39.196Z,55.02
2019-05-28T19:14:07.352Z,55.04
2019-05-28T19:16:35.400Z,54.92
2019-05-28T19:19:03.478Z,55.12
2019-05-28T19:21:31.593Z,54.96
2019-05-28T19:23:59.650Z,54.61
2019-05-28T19:26:27.700Z,55.02
2019-05-28T19:28:55.751Z,55.16
2019-05-28T19:31:24.014Z,55.48
2019-05-28T19:33:52.068Z,55.51
2019-05-28T19:36:20.149Z,55.70
2019-05-28T19:38:48.254Z,55.56
2019-05-28T19:41:16.337Z,55.78
2019-05-28T19:43:44.466Z,55.63
2019-05-28T19:46:12.721Z,55.38
2019-05-28T19:48:40.972Z,55.28
2019-05-28T19:51:12.406Z,54.87
2019-05-28T19:53:40.916Z,54.49
2019-05-28T19:56:09.494Z,55.08
2019-05-28T19:58:37.587Z,55.39
2019-05-28T20:01:05.688Z,55.08
2019-05-28T20:03:35.450Z,55.08
2019-05-28T20:06:03.964Z,55.15
2019-05-28T20:08:32.041Z,54.79
2019-05-28T20:11:00.322Z,54.92
2019-05-28T20:13:30.056Z,54.34
2019-05-28T20:15:58.322Z,54.31
2019-05-28T20:18:30.479Z,54.48
2019-05-28T20:20:58.658Z,54.02
2019-05-28T20:23:27.199Z,53.93
2019-05-28T20:25:56.028Z,53.73
2019-05-28T20:28:24.618Z,53.54
2019-05-28T20:30:54.291Z,53.75
2019-05-28T20:33:24.773Z,53.62
2019-05-28T20:35:53.277Z,53.30
2019-05-28T20:38:23.375Z,53.38
2019-05-28T20:40:51.669Z,53.23
2019-05-28T20:43:27.538Z,53.26
2019-05-28T20:45:56.348Z,52.92
2019-05-28T20:48:24.451Z,53.15
2019-05-28T20:51:07.044Z,52.93
2019-05-28T20:53:35.743Z,53.24
2019-05-28T20:56:01.741Z,53.06
2019-05-28T20:58:39.898Z,52.87
2019-05-28T21:01:01.757Z,53.06
2019-05-28T21:03:31.713Z,53.06
2019-05-28T21:06:00.178Z,53.00
2019-05-28T21:08:29.772Z,52.70
2019-05-28T21:10:58.871Z,52.78
2019-05-28T21:13:28.198Z,52.99
2019-05-28T21:15:56.947Z,53.09
2019-05-28T21:18:25.050Z,52.58
2019-05-28T21:20:55.474Z,52.97
2019-05-28T21:23:25.452Z,52.56
2019-05-28T21:25:54.094Z,52.55
2019-05-28T21:28:25.831Z,52.51
2019-05-28T21:30:54.590Z,52.25
2019-05-28T21:33:28.861Z,52.37
2019-05-28T21:35:57.462Z,52.58
2019-05-28T21:38:47.066Z,52.32
2019-05-28T21:41:17.548Z,52.38
2019-05-28T21:43:46.791Z,52.61
2019-05-28T21:46:39.058Z,52.26
2019-05-28T21:49:07.473Z,52.17
2019-05-28T21:51:35.584Z,52.23
2019-05-28T21:54:05.713Z,52.43
2019-05-28T21:56:33.888Z,52.23
2019-05-28T21:59:02.170Z,52.34
2019-05-28T22:01:51.331Z,52.37
2019-05-28T22:04:19.449Z,52.38
2019-05-28T22:06:47.593Z,52.66
2019-05-28T22:09:15.777Z,52.80
2019-05-28T22:11:43.922Z,52.70
2019-05-28T22:14:12.118Z,53.03
2019-05-28T22:16:40.232Z,53.00
2019-05-28T22:19:08.896Z,53.09
2019-05-28T22:21:38.091Z,52.84
2019-05-28T22:24:12.953Z,53.06
2019-05-28T22:26:42.159Z,52.93
2019-05-28T22:29:10.200Z,53.25
2019-05-28T22:31:38.359Z,53.15
2019-05-28T22:34:07.314Z,53.08
2019-05-28T22:36:35.591Z,53.29
2019-05-28T22:39:09.796Z,53.31
2019-05-28T22:41:38.856Z,53.28
2019-05-28T22:44:07.139Z,53.31
2019-05-28T22:46:36.668Z,53.69
2019-05-28T22:49:05.373Z,53.86
2019-05-28T22:51:33.579Z,53.78
2019-05-28T22:54:01.954Z,53.74
2019-05-28T22:56:30.066Z,53.64
2019-05-28T22:58:58.180Z,53.91
2019-05-28T23:01:26.254Z,54.01
2019-05-28T23:03:54.390Z,53.86
2019-05-28T23:06:22.446Z,53.80
2019-05-28T23:08:51.521Z,53.70
2019-05-28T23:11:20.546Z,53.79
2019-05-28T23:13:49.713Z,53.79
2019-05-28T23:16:17.800Z,53.65
2019-05-28T23:18:45.853Z,53.69
2019-05-28T23:21:14.202Z,53.68
2019-05-28T23:23:43.178Z,53.70
2019-05-28T23:26:12.032Z,53.65
2019-05-28T23:28:40.140Z,53.64
2019-05-28T23:31:08.204Z,53.65
2019-05-28T23:33:36.277Z,53.60
2019-05-28T23:36:06.583Z,53.52
2019-05-28T23:38:34.722Z,53.54
2019-05-28T23:41:03.091Z,53.55
2019-05-28T23:43:31.207Z,53.59
2019-05-28T23:46:06.113Z,53.56
2019-05-28T23:48:52.942Z,53.31
2019-05-28T23:51:22.557Z,53.39
2019-05-28T23:53:50.735Z,53.38
2019-05-28T23:56:19.319Z,53.25
2019-05-28T23:58:47.420Z,53.15
